Time;durP1;ratioP1;P1;durP2;ratioP2;P2;SDS_P1;SDS_P2;PMS_P1;PMS_P2;Temp;Humidity;BMP_temperature;BMP_pressure;BME280_temperature;BME280_humidity;BME280_pressure;Samples;Min_cycle;Max_cycle;Signal;HPM_P1;HPM_P2
2021/10/15 00:02:05;;;;;;;;;;;9.70;99.90;;;;;;5002284;28;20286;-74
2021/10/15 00:04:31;;;;;;;;;;;9.80;99.90;;;;;;4993437;28;23265;-74
2021/10/15 00:06:58;;;;;;;;;;;9.90;99.90;;;;;;4999011;28;19925;-74
2021/10/15 00:09:24;;;;;;;;;;;10.00;99.90;;;;;;4997167;28;19932;-74
2021/10/15 00:11:51;;;;;;;;;;;10.00;99.90;;;;;;5003132;28;20025;-74
2021/10/15 00:14:18;;;;;;;;;;;10.10;99.90;;;;;;4995411;28;19926;-74
2021/10/15 00:16:46;;;;;;;;;;;10.10;99.90;;;;;;4998383;28;19983;-74
2021/10/15 00:19:12;;;;;;;;;;;10.20;99.90;;;;;;4993148;28;20365;-74
2021/10/15 00:21:39;;;;;;;;;;;10.20;99.90;;;;;;5000544;28;19932;-74
2021/10/15 00:24:06;;;;;;;;;;;10.30;99.90;;;;;;4991766;28;19930;-75
2021/10/15 00:26:33;;;;;;;;;;;10.30;99.90;;;;;;4994796;28;20412;-74
2021/10/15 00:28:59;;;;;;;;;;;10.30;99.90;;;;;;4998496;28;19932;-75
2021/10/15 00:31:26;;;;;;;;;;;10.30;99.90;;;;;;4992887;28;19926;-75
2021/10/15 00:33:54;;;;;;;;;;;10.30;99.90;;;;;;4998752;28;19926;-75
2021/10/15 00:36:20;;;;;;;;;;;10.30;99.90;;;;;;4991005;28;19932;-74
2021/10/15 00:38:47;;;;;;;;;;;10.40;99.90;;;;;;5001198;28;19930;-75
2021/10/15 00:41:14;;;;;;;;;;;10.40;99.90;;;;;;4994236;28;20376;-75
2021/10/15 00:43:55;;;;;;;;;;;10.50;99.90;;;;;;4999925;28;20016;-75
2021/10/15 00:46:22;;;;;;;;;;;10.60;99.90;;;;;;4999290;28;19926;-74
2021/10/15 00:48:48;;;;;;;;;;;10.60;99.90;;;;;;4990709;28;19925;-75
2021/10/15 00:51:16;;;;;;;;;;;10.60;99.90;;;;;;4991202;28;20013;-75
2021/10/15 00:53:43;;;;;;;;;;;10.60;99.90;;;;;;4996151;28;19925;-75
2021/10/15 00:56:10;;;;;;;;;;;10.70;99.90;;;;;;5000939;28;19925;-74
2021/10/15 00:58:37;;;;;;;;;;;10.70;99.90;;;;;;4995712;28;19932;-74
2021/10/15 01:01:03;;;;;;;;;;;10.70;99.90;;;;;;4996535;28;19932;-74
2021/10/15 01:03:30;;;;;;;;;;;10.70;99.90;;;;;;4994518;28;19926;-74
2021/10/15 01:05:56;;;;;;;;;;;10.70;99.90;;;;;;4992206;28;19933;-74
2021/10/15 01:08:25;;;;;;;;;;;10.80;99.90;;;;;;4994774;28;20659;-74
2021/10/15 01:10:51;;;;;;;;;;;10.90;99.90;;;;;;4992377;28;19925;-74
2021/10/15 01:13:18;;;;;;;;;;;10.90;99.90;;;;;;4994504;28;19932;-74
2021/10/15 01:15:45;;;;;;;;;;;10.90;99.90;;;;;;4995555;28;19926;-73
2021/10/15 01:18:12;;;;;;;;;;;10.90;99.90;;;;;;4991769;28;19930;-74
2021/10/15 01:20:40;;;;;;;;;;;10.90;99.90;;;;;;4996740;28;20380;-74
2021/10/15 01:23:06;;;;;;;;;;;11.00;99.90;;;;;;4992030;28;19929;-74
2021/10/15 01:25:34;;;;;;;;;;;11.00;99.90;;;;;;4990757;28;19934;-74
2021/10/15 01:28:01;;;;;;;;;;;11.10;99.90;;;;;;4992711;28;19929;-74
2021/10/15 01:30:29;;;;;;;;;;;11.10;99.90;;;;;;4992329;28;21329;-75
2021/10/15 01:32:56;;;;;;;;;;;11.10;99.90;;;;;;4999449;28;19925;-74
2021/10/15 01:35:23;;;;;;;;;;;11.20;99.90;;;;;;4993108;28;19926;-74
2021/10/15 01:37:51;;;;;;;;;;;11.20;99.90;;;;;;4993861;28;19926;-74
2021/10/15 01:40:17;;;;;;;;;;;11.20;99.90;;;;;;4996245;28;20020;-74
2021/10/15 01:42:56;;;;;;;;;;;11.20;99.90;;;;;;4993360;28;20607;-74
2021/10/15 01:45:23;;;;;;;;;;;11.20;99.90;;;;;;4990723;28;19933;-74
2021/10/15 01:47:50;;;;;;;;;;;11.20;99.90;;;;;;4994661;28;19948;-74
2021/10/15 01:50:17;;;;;;;;;;;11.20;99.90;;;;;;4994919;28;20666;-73
2021/10/15 01:52:43;;;;;;;;;;;11.20;99.90;;;;;;5000516;28;19926;-74
2021/10/15 01:55:11;;;;;;;;;;;11.20;99.90;;;;;;4999517;28;19926;-74
2021/10/15 01:57:38;;;;;;;;;;;11.20;99.90;;;;;;4993543;28;19930;-74
2021/10/15 02:00:06;;;;;;;;;;;11.20;99.90;;;;;;4995393;28;20392;-74
2021/10/15 02:02:33;;;;;;;;;;;11.20;99.90;;;;;;4997260;28;20308;-74
2021/10/15 02:05:00;;;;;;;;;;;11.20;99.90;;;;;;5002378;28;20001;-74
2021/10/15 02:07:26;;;;;;;;;;;11.20;99.90;;;;;;5001444;28;19929;-75
2021/10/15 02:09:53;;;;;;;;;;;11.20;99.90;;;;;;4994509;28;19941;-74
2021/10/15 02:12:21;;;;;;;;;;;11.20;99.90;;;;;;5000107;28;20016;-74
2021/10/15 02:14:48;;;;;;;;;;;11.20;99.90;;;;;;4989038;28;19936;-74
2021/10/15 02:17:14;;;;;;;;;;;11.20;99.90;;;;;;4995402;28;20318;-74
2021/10/15 02:19:41;;;;;;;;;;;11.20;99.90;;;;;;4998624;28;19934;-74
2021/10/15 02:22:08;;;;;;;;;;;11.30;99.90;;;;;;4993175;28;19960;-74
2021/10/15 02:24:34;;;;;;;;;;;11.30;99.90;;;;;;4993851;28;20382;-74
2021/10/15 02:27:01;;;;;;;;;;;11.30;99.90;;;;;;4995049;28;20411;-74
2021/10/15 02:29:29;;;;;;;;;;;11.30;99.90;;;;;;4999820;28;20524;-74
2021/10/15 02:31:56;;;;;;;;;;;11.40;99.90;;;;;;4996409;28;20017;-75
2021/10/15 02:34:23;;;;;;;;;;;11.30;99.90;;;;;;4992744;28;20396;-75
2021/10/15 02:36:49;;;;;;;;;;;11.30;99.90;;;;;;4990575;28;19933;-75
2021/10/15 02:39:16;;;;;;;;;;;11.30;99.90;;;;;;4993411;28;19925;-75
2021/10/15 02:41:43;;;;;;;;;;;11.30;99.90;;;;;;4990145;28;19932;-75
2021/10/15 02:44:10;;;;;;;;;;;11.30;99.90;;;;;;4995481;28;19936;-75
2021/10/15 02:46:39;;;;;;;;;;;11.20;99.90;;;;;;4994477;28;19932;-75
2021/10/15 02:49:06;;;;;;;;;;;11.20;99.90;;;;;;4987509;28;19933;-75
2021/10/15 02:51:33;;;;;;;;;;;11.20;99.90;;;;;;4997017;28;19926;-75
2021/10/15 02:54:00;;;;;;;;;;;11.20;99.90;;;;;;4992409;28;19936;-74
2021/10/15 02:56:27;;;;;;;;;;;11.20;99.90;;;;;;4992083;28;19938;-74
2021/10/15 02:58:54;;;;;;;;;;;11.20;99.90;;;;;;4996797;28;19965;-74
2021/10/15 03:01:20;;;;;;;;;;;11.10;99.90;;;;;;4999513;28;20287;-75
2021/10/15 03:03:49;;;;;;;;;;;11.20;99.90;;;;;;4998603;28;19926;-74
2021/10/15 03:06:16;;;;;;;;;;;11.20;99.90;;;;;;4996994;28;19933;-74
2021/10/15 03:08:42;;;;;;;;;;;11.10;99.90;;;;;;4990518;28;19926;-74
2021/10/15 03:11:09;;;;;;;;;;;11.10;99.90;;;;;;4987493;28;20168;-75
2021/10/15 03:13:36;;;;;;;;;;;11.10;99.90;;;;;;4989889;28;19933;-74
2021/10/15 03:16:02;;;;;;;;;;;11.10;99.90;;;;;;4997625;28;19932;-74
2021/10/15 03:18:29;;;;;;;;;;;11.10;99.90;;;;;;4993947;28;19934;-74
2021/10/15 03:20:57;;;;;;;;;;;11.10;99.90;;;;;;4989179;28;19932;-74
2021/10/15 03:23:24;;;;;;;;;;;11.10;99.90;;;;;;4997491;28;19965;-74
2021/10/15 03:25:50;;;;;;;;;;;11.10;99.90;;;;;;4992860;28;19992;-74
2021/10/15 03:28:17;;;;;;;;;;;11.10;99.90;;;;;;4994928;28;20021;-77
2021/10/15 03:30:44;;;;;;;;;;;11.00;99.90;;;;;;4992359;28;19930;-71
2021/10/15 03:33:10;;;;;;;;;;;11.10;99.90;;;;;;5003558;28;19936;-71
2021/10/15 03:35:37;;;;;;;;;;;11.10;99.90;;;;;;5028638;28;20311;-72
2021/10/15 03:38:05;;;;;;;;;;;11.10;99.90;;;;;;4993759;28;19926;-72
2021/10/15 03:40:31;;;;;;;;;;;11.00;99.90;;;;;;4990590;28;19926;-72
2021/10/15 03:42:58;;;;;;;;;;;11.00;99.90;;;;;;4992989;28;19933;-70
2021/10/15 03:45:25;;;;;;;;;;;11.00;99.90;;;;;;4992261;28;20517;-70
2021/10/15 03:47:51;;;;;;;;;;;11.00;99.90;;;;;;4999065;28;19933;-71
2021/10/15 03:50:18;;;;;;;;;;;11.00;99.90;;;;;;4996225;28;19934;-70
2021/10/15 03:52:45;;;;;;;;;;;11.00;99.90;;;;;;5001560;28;19926;-71
2021/10/15 03:55:13;;;;;;;;;;;11.00;99.90;;;;;;4990841;28;19926;-71
2021/10/15 03:57:40;;;;;;;;;;;11.10;99.90;;;;;;4996160;28;19930;-71
2021/10/15 04:00:09;;;;;;;;;;;11.10;99.90;;;;;;4991681;28;19936;-71
2021/10/15 04:02:37;;;;;;;;;;;11.10;99.90;;;;;;4999278;28;19932;-71
2021/10/15 04:05:04;;;;;;;;;;;11.10;99.90;;;;;;4992358;28;19926;-72
2021/10/15 04:07:31;;;;;;;;;;;11.10;99.90;;;;;;5002610;28;19925;-72
2021/10/15 04:09:57;;;;;;;;;;;11.10;99.90;;;;;;4998032;28;19932;-72
2021/10/15 04:12:25;;;;;;;;;;;11.10;99.90;;;;;;5000128;28;20028;-72
2021/10/15 04:14:52;;;;;;;;;;;11.10;99.90;;;;;;5003609;28;19925;-72
2021/10/15 04:17:19;;;;;;;;;;;11.10;99.90;;;;;;4993564;28;20376;-71
2021/10/15 04:19:45;;;;;;;;;;;11.10;99.90;;;;;;4991963;28;20321;-72
2021/10/15 04:22:12;;;;;;;;;;;11.10;99.90;;;;;;4999151;28;19926;-72
2021/10/15 04:24:38;;;;;;;;;;;11.10;99.90;;;;;;4994391;28;19932;-72
2021/10/15 04:27:05;;;;;;;;;;;11.10;99.90;;;;;;4992635;28;19926;-72
2021/10/15 04:29:33;;;;;;;;;;;11.10;99.90;;;;;;5002168;28;20307;-73
2021/10/15 04:32:00;;;;;;;;;;;11.10;99.90;;;;;;4991834;28;20400;-73
2021/10/15 04:34:27;;;;;;;;;;;11.10;99.90;;;;;;4992867;28;19926;-73
2021/10/15 04:36:54;;;;;;;;;;;11.10;99.90;;;;;;4994964;28;19932;-73
2021/10/15 04:39:21;;;;;;;;;;;11.10;99.90;;;;;;4989771;28;19933;-72
2021/10/15 04:41:47;;;;;;;;;;;11.10;99.90;;;;;;4990893;28;19930;-73
2021/10/15 04:44:14;;;;;;;;;;;11.10;99.90;;;;;;4997591;28;19933;-71
2021/10/15 04:46:42;;;;;;;;;;;11.10;99.90;;;;;;5017496;28;19975;-71
2021/10/15 04:49:09;;;;;;;;;;;11.10;99.90;;;;;;5005843;28;19936;-71
2021/10/15 04:51:36;;;;;;;;;;;11.10;99.90;;;;;;5017117;28;19942;-71
2021/10/15 04:54:02;;;;;;;;;;;11.10;99.90;;;;;;5012420;28;19930;-71
2021/10/15 04:56:30;;;;;;;;;;;11.10;99.90;;;;;;5005627;28;19944;-71
2021/10/15 04:58:57;;;;;;;;;;;11.10;99.90;;;;;;4992716;28;20022;-71
2021/10/15 05:01:24;;;;;;;;;;;11.10;99.90;;;;;;5001409;28;19934;-71
2021/10/15 05:03:51;;;;;;;;;;;11.10;99.90;;;;;;4998597;28;19926;-71
2021/10/15 05:06:19;;;;;;;;;;;11.10;99.90;;;;;;4988969;28;19933;-72
2021/10/15 05:09:00;;;;;;;;;;;11.10;99.90;;;;;;4996504;28;20355;-72
2021/10/15 05:11:27;;;;;;;;;;;11.10;99.90;;;;;;4996739;28;20327;-72
2021/10/15 05:13:54;;;;;;;;;;;11.10;99.90;;;;;;4996071;28;20398;-71
2021/10/15 05:16:20;;;;;;;;;;;11.10;99.90;;;;;;4996996;28;19926;-72
2021/10/15 05:18:47;;;;;;;;;;;11.20;99.90;;;;;;4990830;28;19936;-71
2021/10/15 05:21:15;;;;;;;;;;;11.10;99.90;;;;;;4991823;28;19934;-71
2021/10/15 05:23:41;;;;;;;;;;;11.10;99.90;;;;;;4991260;28;20016;-71
2021/10/15 05:26:08;;;;;;;;;;;11.10;99.90;;;;;;4997323;28;19926;-71
2021/10/15 05:28:35;;;;;;;;;;;11.10;99.90;;;;;;4994686;28;19930;-71
2021/10/15 05:31:01;;;;;;;;;;;11.10;99.90;;;;;;4992777;28;20398;-72
2021/10/15 05:33:28;;;;;;;;;;;11.10;99.90;;;;;;4987612;28;19934;-72
2021/10/15 05:35:55;;;;;;;;;;;11.30;99.90;;;;;;4990139;28;19926;-72
2021/10/15 05:38:23;;;;;;;;;;;11.10;99.90;;;;;;4991289;28;19931;-72
2021/10/15 05:40:50;;;;;;;;;;;11.20;99.90;;;;;;4986892;28;19939;-73
2021/10/15 05:43:16;;;;;;;;;;;11.20;99.90;;;;;;4995827;28;19925;-71
2021/10/15 05:45:43;;;;;;;;;;;11.20;99.90;;;;;;4993252;28;19937;-72
2021/10/15 05:48:10;;;;;;;;;;;11.20;99.90;;;;;;4996022;28;19932;-71
2021/10/15 05:50:37;;;;;;;;;;;11.20;99.90;;;;;;4989431;28;20473;-71
2021/10/15 05:53:07;;;;;;;;;;;11.20;99.90;;;;;;4998144;28;19977;-71
2021/10/15 05:55:41;;;;;;;;;;;11.20;99.90;;;;;;4990897;28;19952;-71
2021/10/15 06:00:42;;;;;;;;;;;11.30;99.90;;;;;;4994639;28;20014;-72
2021/10/15 06:03:09;;;;;;;;;;;11.30;99.90;;;;;;5001307;28;19930;-72
2021/10/15 06:14:17;;;;;;;;;;;11.30;99.90;;;;;;4989608;28;19932;-71
2021/10/15 06:16:47;;;;;;;;;;;11.30;99.90;;;;;;4994192;28;19925;-72
2021/10/15 06:19:17;;;;;;;;;;;11.30;99.90;;;;;;5004336;28;19940;-71
2021/10/15 06:21:44;;;;;;;;;;;11.30;99.90;;;;;;4995313;28;20004;-74
2021/10/15 06:24:10;;;;;;;;;;;11.30;99.90;;;;;;4995388;28;20005;-73
2021/10/15 06:26:39;;;;;;;;;;;11.30;99.90;;;;;;4990896;28;19925;-72
2021/10/15 06:29:05;;;;;;;;;;;11.30;99.90;;;;;;4993894;28;20040;-72
2021/10/15 06:31:32;;;;;;;;;;;11.30;99.90;;;;;;4995119;28;19930;-72
2021/10/15 06:33:59;;;;;;;;;;;11.30;99.90;;;;;;4994729;28;19932;-72
2021/10/15 06:36:26;;;;;;;;;;;11.30;99.90;;;;;;5000387;28;20291;-72
2021/10/15 06:38:52;;;;;;;;;;;11.30;99.90;;;;;;5004594;28;20372;-72
2021/10/15 06:41:19;;;;;;;;;;;11.20;99.90;;;;;;4990451;28;20404;-72
2021/10/15 06:43:47;;;;;;;;;;;11.30;99.90;;;;;;5000782;28;19932;-72
2021/10/15 06:46:14;;;;;;;;;;;11.20;99.90;;;;;;4991323;28;19931;-72
2021/10/15 06:48:41;;;;;;;;;;;11.20;99.90;;;;;;5005393;28;20303;-72
2021/10/15 06:51:08;;;;;;;;;;;11.30;99.90;;;;;;4997440;28;19965;-71
2021/10/15 06:53:34;;;;;;;;;;;11.30;99.90;;;;;;4999182;28;20114;-71
2021/10/15 06:56:01;;;;;;;;;;;11.30;99.90;;;;;;4993784;28;19926;-73
2021/10/15 06:58:28;;;;;;;;;;;11.30;99.90;;;;;;4997179;28;19930;-72
2021/10/15 07:00:56;;;;;;;;;;;11.30;99.90;;;;;;4995762;28;19936;-72
2021/10/15 07:03:23;;;;;;;;;;;11.30;99.90;;;;;;4998147;28;19933;-72
2021/10/15 07:05:50;;;;;;;;;;;11.30;99.90;;;;;;4990755;28;19926;-72
2021/10/15 07:08:16;;;;;;;;;;;11.30;99.90;;;;;;4996341;28;19926;-72
2021/10/15 07:10:43;;;;;;;;;;;11.30;99.90;;;;;;5024922;28;19961;-72
2021/10/15 07:13:13;;;;;;;;;;;11.40;99.90;;;;;;4997022;28;20100;-72
2021/10/15 07:15:40;;;;;;;;;;;11.40;99.90;;;;;;5001084;28;19932;-72
2021/10/15 07:18:08;;;;;;;;;;;11.40;99.90;;;;;;5000917;28;19944;-72
2021/10/15 07:20:35;;;;;;;;;;;11.40;99.90;;;;;;4991917;28;20396;-73
2021/10/15 07:23:03;;;;;;;;;;;11.40;99.90;;;;;;5004786;28;19925;-74
2021/10/15 07:25:31;;;;;;;;;;;11.50;99.90;;;;;;5000677;28;19926;-73
2021/10/15 07:27:58;;;;;;;;;;;11.50;99.90;;;;;;5006409;28;20024;-72
2021/10/15 07:30:24;;;;;;;;;;;11.50;99.90;;;;;;4996946;28;20024;-73
2021/10/15 07:32:52;;;;;;;;;;;11.60;99.90;;;;;;4997401;28;19933;-73
2021/10/15 07:35:20;;;;;;;;;;;11.60;99.90;;;;;;4998405;28;19932;-73
2021/10/15 07:37:47;;;;;;;;;;;11.60;99.90;;;;;;5002598;28;19934;-73
2021/10/15 07:40:14;;;;;;;;;;;11.60;99.90;;;;;;4998535;28;20003;-73
2021/10/15 07:42:40;;;;;;;;;;;11.60;99.90;;;;;;5004850;28;20012;-74
2021/10/15 07:45:08;;;;;;;;;;;11.60;99.90;;;;;;4994381;28;19934;-73
2021/10/15 07:47:34;;;;;;;;;;;11.70;99.90;;;;;;4991229;28;19979;-74
2021/10/15 07:50:01;;;;;;;;;;;11.70;99.90;;;;;;4998721;28;19926;-74
2021/10/15 07:52:29;;;;;;;;;;;11.80;99.90;;;;;;5002182;28;19925;-72
2021/10/15 07:54:57;;;;;;;;;;;11.80;99.90;;;;;;4991118;28;19926;-73
2021/10/15 07:57:24;;;;;;;;;;;11.90;99.90;;;;;;4990083;28;19955;-72
2021/10/15 07:59:51;;;;;;;;;;;11.90;99.90;;;;;;5007517;28;20004;-72
2021/10/15 08:02:17;;;;;;;;;;;11.90;99.90;;;;;;4996997;28;19925;-73
2021/10/15 08:04:44;;;;;;;;;;;12.00;99.90;;;;;;4997401;28;20384;-71
2021/10/15 08:07:11;;;;;;;;;;;11.90;99.90;;;;;;5006983;28;19977;-72
2021/10/15 08:09:38;;;;;;;;;;;12.20;99.90;;;;;;5000070;28;19932;-73
2021/10/15 08:12:06;;;;;;;;;;;12.40;99.90;;;;;;4996143;28;20377;-71
2021/10/15 08:14:32;;;;;;;;;;;12.50;99.90;;;;;;5004980;28;20453;-71
2021/10/15 08:16:59;;;;;;;;;;;12.70;99.90;;;;;;5003048;28;19933;-71
2021/10/15 08:19:26;;;;;;;;;;;12.70;99.90;;;;;;5007502;28;19926;-71
2021/10/15 08:21:52;;;;;;;;;;;12.80;99.90;;;;;;5007404;28;20036;-70
2021/10/15 08:24:19;;;;;;;;;;;12.90;99.90;;;;;;5006786;28;19925;-71
2021/10/15 08:26:48;;;;;;;;;;;12.90;99.90;;;;;;5009046;28;19932;-72
2021/10/15 08:29:15;;;;;;;;;;;12.90;99.90;;;;;;5007995;28;20304;-73
2021/10/15 08:31:41;;;;;;;;;;;12.80;99.90;;;;;;5006054;28;19925;-71
2021/10/15 08:34:09;;;;;;;;;;;12.80;99.90;;;;;;5009463;28;20296;-73
2021/10/15 08:36:38;;;;;;;;;;;12.80;99.90;;;;;;4998563;28;19948;-72
2021/10/15 08:39:05;;;;;;;;;;;12.70;99.90;;;;;;5003746;28;19979;-71
2021/10/15 08:41:31;;;;;;;;;;;12.70;99.90;;;;;;5009700;28;20028;-72
2021/10/15 08:43:59;;;;;;;;;;;12.70;99.90;;;;;;5000524;28;20296;-71
2021/10/15 08:46:26;;;;;;;;;;;12.70;99.90;;;;;;5008451;28;19933;-71
2021/10/15 08:48:53;;;;;;;;;;;12.70;99.90;;;;;;5007265;28;20008;-73
2021/10/15 08:51:21;;;;;;;;;;;12.70;99.90;;;;;;5008678;28;19932;-73
2021/10/15 08:53:48;;;;;;;;;;;12.80;99.90;;;;;;5008508;28;19929;-72
2021/10/15 08:56:17;;;;;;;;;;;12.90;99.90;;;;;;5009376;28;19932;-74
2021/10/15 08:58:44;;;;;;;;;;;13.20;99.90;;;;;;5007110;28;19926;-73
2021/10/15 09:01:12;;;;;;;;;;;13.40;99.90;;;;;;5017485;28;19926;-73
2021/10/15 09:03:39;;;;;;;;;;;13.40;99.90;;;;;;5007601;28;19926;-72
2021/10/15 09:06:07;;;;;;;;;;;13.30;99.90;;;;;;5003346;28;20008;-72
2021/10/15 09:08:44;;;;;;;;;;;13.20;99.90;;;;;;5004145;28;19932;-72
2021/10/15 09:11:23;;;;;;;;;;;13.10;99.90;;;;;;5001581;28;20315;-71
2021/10/15 09:13:50;;;;;;;;;;;13.00;99.90;;;;;;5008433;28;19932;-71
2021/10/15 09:16:18;;;;;;;;;;;13.00;99.90;;;;;;5009634;28;19925;-71
2021/10/15 09:18:46;;;;;;;;;;;13.00;99.90;;;;;;5002398;28;19932;-71
2021/10/15 09:21:16;;;;;;;;;;;13.00;99.90;;;;;;5008965;28;19925;-71
2021/10/15 09:23:43;;;;;;;;;;;13.00;99.90;;;;;;5060852;28;20290;-71
2021/10/15 09:26:10;;;;;;;;;;;12.90;99.90;;;;;;5069351;28;19926;-72
2021/10/15 09:28:40;;;;;;;;;;;12.90;99.90;;;;;;4993218;28;20257;-71
2021/10/15 09:31:06;;;;;;;;;;;12.80;99.90;;;;;;5000041;28;19933;-72
2021/10/15 09:33:34;;;;;;;;;;;12.80;99.90;;;;;;4992658;28;20012;-71
2021/10/15 09:36:05;;;;;;;;;;;12.80;99.90;;;;;;5006961;28;19926;-71
2021/10/15 09:38:32;;;;;;;;;;;12.80;99.90;;;;;;4995217;28;19930;-71
2021/10/15 09:40:58;;;;;;;;;;;12.70;99.90;;;;;;4999613;28;20040;-71
2021/10/15 09:43:32;;;;;;;;;;;12.70;99.90;;;;;;5004579;28;20363;-71
2021/10/15 09:46:00;;;;;;;;;;;12.60;99.90;;;;;;5005944;28;19930;-71
2021/10/15 09:48:27;;;;;;;;;;;12.60;99.90;;;;;;5007641;28;19925;-71
2021/10/15 09:51:12;;;;;;;;;;;12.60;99.90;;;;;;5008928;28;19965;-71
2021/10/15 09:53:39;;;;;;;;;;;12.60;99.90;;;;;;5007344;28;20425;-71
2021/10/15 09:56:05;;;;;;;;;;;12.70;99.90;;;;;;5045127;28;19948;-71
2021/10/15 09:58:32;;;;;;;;;;;12.80;99.90;;;;;;4996099;28;19933;-71
2021/10/15 10:00:59;;;;;;;;;;;12.70;99.90;;;;;;5001475;28;19926;-71
2021/10/15 10:03:27;;;;;;;;;;;12.50;99.90;;;;;;5004820;28;19926;-71
2021/10/15 10:05:53;;;;;;;;;;;12.30;99.90;;;;;;5034807;28;19937;-71
2021/10/15 10:08:21;;;;;;;;;;;12.30;99.90;;;;;;5003363;28;20303;-71
2021/10/15 10:10:48;;;;;;;;;;;12.30;99.90;;;;;;5006213;28;19933;-71
2021/10/15 10:13:16;;;;;;;;;;;12.30;99.90;;;;;;5007705;28;20025;-71
2021/10/15 10:15:43;;;;;;;;;;;12.30;99.90;;;;;;5008260;28;19925;-71
2021/10/15 10:18:14;;;;;;;;;;;12.30;99.90;;;;;;5004820;28;19926;-71
2021/10/15 10:20:43;;;;;;;;;;;12.20;99.90;;;;;;5006166;28;19948;-71
2021/10/15 10:23:13;;;;;;;;;;;12.20;99.90;;;;;;4999970;28;19937;-71
2021/10/15 10:25:41;;;;;;;;;;;12.20;99.90;;;;;;5007067;28;19925;-71
2021/10/15 10:28:13;;;;;;;;;;;12.10;99.90;;;;;;5000770;28;20377;-71
2021/10/15 10:30:40;;;;;;;;;;;12.10;99.90;;;;;;5008781;28;19969;-71
2021/10/15 10:33:07;;;;;;;;;;;12.10;99.90;;;;;;4999063;28;20036;-71
2021/10/15 10:35:34;;;;;;;;;;;12.00;99.90;;;;;;5002741;28;20356;-70
2021/10/15 10:38:19;;;;;;;;;;;11.90;99.90;;;;;;5003285;28;19971;-71
2021/10/15 10:41:00;;;;;;;;;;;11.80;99.90;;;;;;4996299;28;19939;-71
2021/10/15 10:43:29;;;;;;;;;;;11.90;99.90;;;;;;4993457;28;19926;-71
2021/10/15 10:46:10;;;;;;;;;;;11.90;99.90;;;;;;4989920;28;20390;-71
2021/10/15 10:49:08;;;;;;;;;;;12.00;99.90;;;;;;5002435;28;19925;-72
2021/10/15 10:51:35;;;;;;;;;;;12.20;99.90;;;;;;4994653;28;19925;-71
2021/10/15 10:54:20;;;;;;;;;;;12.40;99.90;;;;;;4991880;28;20025;-72
2021/10/15 10:56:49;;;;;;;;;;;12.40;99.90;;;;;;4998958;28;19971;-71
2021/10/15 10:59:30;;;;;;;;;;;12.40;99.90;;;;;;5004333;28;20322;-71
2021/10/15 11:02:01;;;;;;;;;;;12.40;99.90;;;;;;4994320;28;19944;-71
2021/10/15 11:04:30;;;;;;;;;;;12.50;99.90;;;;;;5003224;28;19948;-72
2021/10/15 11:06:57;;;;;;;;;;;12.40;99.90;;;;;;5006492;28;19952;-73
2021/10/15 11:09:31;;;;;;;;;;;12.30;99.90;;;;;;5001512;28;19953;-71
2021/10/15 11:11:58;;;;;;;;;;;12.30;99.90;;;;;;4992658;28;20330;-71
2021/10/15 11:14:40;;;;;;;;;;;12.60;99.90;;;;;;4998488;28;19945;-71
2021/10/15 11:17:11;;;;;;;;;;;12.80;99.90;;;;;;5010879;28;19974;-71
2021/10/15 11:19:38;;;;;;;;;;;12.90;99.90;;;;;;5009355;28;19962;-71
2021/10/15 11:22:05;;;;;;;;;;;12.90;99.90;;;;;;5005468;28;19994;-70
2021/10/15 11:24:31;;;;;;;;;;;13.00;99.90;;;;;;5008893;28;20307;-70
2021/10/15 11:26:58;;;;;;;;;;;13.40;99.90;;;;;;5006680;28;19968;-71
2021/10/15 11:29:25;;;;;;;;;;;13.60;99.90;;;;;;4999247;28;19942;-71
2021/10/15 11:31:55;;;;;;;;;;;13.50;99.90;;;;;;4997520;28;19964;-72
2021/10/15 11:34:23;;;;;;;;;;;14.10;99.90;;;;;;5008075;28;20038;-71
2021/10/15 11:37:01;;;;;;;;;;;14.40;99.90;;;;;;5004321;28;20034;-71
2021/10/15 11:39:28;;;;;;;;;;;14.40;99.90;;;;;;5000950;28;19956;-71
2021/10/15 11:41:55;;;;;;;;;;;14.50;99.90;;;;;;4997412;28;20473;-72
2021/10/15 11:44:31;;;;;;;;;;;14.80;99.90;;;;;;5001403;28;19960;-71
2021/10/15 11:46:58;;;;;;;;;;;14.50;99.90;;;;;;5000849;28;20302;-71
2021/10/15 11:49:34;;;;;;;;;;;14.90;99.90;;;;;;5003452;28;19936;-72
2021/10/15 11:52:01;;;;;;;;;;;15.20;99.90;;;;;;5002708;28;19936;-71
2021/10/15 11:54:28;;;;;;;;;;;15.30;99.90;;;;;;5001180;28;19942;-71
2021/10/15 11:56:55;;;;;;;;;;;15.20;99.90;;;;;;4998081;28;19957;-72
2021/10/15 11:59:23;;;;;;;;;;;15.10;99.90;;;;;;5006423;28;20418;-72
2021/10/15 12:01:49;;;;;;;;;;;14.70;99.90;;;;;;4999720;28;20039;-71
2021/10/15 12:04:16;;;;;;;;;;;14.60;99.90;;;;;;5003835;28;19962;-73
2021/10/15 12:06:44;;;;;;;;;;;14.20;99.90;;;;;;4999685;28;19958;-73
2021/10/15 12:09:15;;;;;;;;;;;14.10;99.90;;;;;;5003273;28;19943;-73
2021/10/15 12:11:46;;;;;;;;;;;14.40;99.90;;;;;;4996619;28;20389;-71
2021/10/15 12:14:15;;;;;;;;;;;15.00;99.90;;;;;;4997451;28;19942;-71
2021/10/15 12:16:46;;;;;;;;;;;15.30;99.90;;;;;;5001120;28;19945;-73
2021/10/15 12:19:19;;;;;;;;;;;15.30;99.90;;;;;;5003418;28;19960;-73
2021/10/15 12:21:49;;;;;;;;;;;15.20;99.90;;;;;;5001342;28;19930;-73
2021/10/15 12:24:24;;;;;;;;;;;15.10;99.90;;;;;;4994085;28;19932;-73
2021/10/15 12:27:00;;;;;;;;;;;14.80;99.90;;;;;;5002437;28;20478;-73
2021/10/15 12:29:42;;;;;;;;;;;14.40;99.90;;;;;;4998969;28;19964;-76
2021/10/15 12:32:13;;;;;;;;;;;14.80;99.90;;;;;;4999429;28;19963;-73
2021/10/15 12:34:50;;;;;;;;;;;14.80;99.90;;;;;;4997160;28;20313;-71
2021/10/15 12:37:27;;;;;;;;;;;14.90;99.90;;;;;;4996736;28;19936;-73
2021/10/15 12:40:07;;;;;;;;;;;14.70;99.90;;;;;;5001763;28;19932;-74
2021/10/15 12:42:33;;;;;;;;;;;14.70;99.90;;;;;;4999248;28;19936;-74
2021/10/15 12:45:04;;;;;;;;;;;14.60;99.90;;;;;;4997579;28;19933;-73
2021/10/15 12:47:30;;;;;;;;;;;14.50;99.90;;;;;;5000152;28;19932;-73
2021/10/15 12:49:58;;;;;;;;;;;14.60;99.90;;;;;;4995844;28;19941;-74
2021/10/15 12:52:30;;;;;;;;;;;14.70;99.90;;;;;;4997672;28;20067;-73
2021/10/15 12:54:57;;;;;;;;;;;14.90;99.90;;;;;;4998650;28;19972;-73
2021/10/15 12:57:34;;;;;;;;;;;15.10;99.90;;;;;;4996757;28;19949;-73
2021/10/15 13:00:02;;;;;;;;;;;15.20;99.90;;;;;;5002240;28;20707;-74
2021/10/15 13:02:29;;;;;;;;;;;15.40;99.90;;;;;;4997591;28;19926;-73
2021/10/15 13:04:57;;;;;;;;;;;15.40;99.90;;;;;;5006773;28;20387;-73
2021/10/15 13:07:23;;;;;;;;;;;15.40;99.90;;;;;;4992851;28;19934;-72
2021/10/15 13:09:51;;;;;;;;;;;15.60;99.90;;;;;;4990386;28;20331;-72
2021/10/15 13:12:18;;;;;;;;;;;15.90;99.90;;;;;;4997744;28;19930;-73
2021/10/15 13:14:45;;;;;;;;;;;15.60;99.90;;;;;;4993360;28;19933;-72
2021/10/15 13:17:12;;;;;;;;;;;15.30;99.90;;;;;;4997437;28;19925;-72
2021/10/15 13:19:39;;;;;;;;;;;15.10;99.90;;;;;;4992706;28;19926;-72
2021/10/15 13:22:06;;;;;;;;;;;15.20;99.90;;;;;;4991436;28;20402;-71
2021/10/15 13:24:33;;;;;;;;;;;15.20;99.90;;;;;;4993415;28;20082;-71
2021/10/15 13:27:01;;;;;;;;;;;15.40;99.90;;;;;;4991336;28;20016;-73
2021/10/15 13:29:27;;;;;;;;;;;15.30;99.90;;;;;;4988889;28;19934;-76
2021/10/15 13:31:54;;;;;;;;;;;15.30;99.90;;;;;;4997177;28;19926;-74
2021/10/15 13:34:21;;;;;;;;;;;15.20;99.90;;;;;;5000181;28;20032;-75
2021/10/15 13:36:49;;;;;;;;;;;15.10;99.90;;;;;;4991168;28;20016;-74
2021/10/15 13:39:16;;;;;;;;;;;15.10;99.90;;;;;;4993030;28;20024;-73
2021/10/15 13:44:46;;;;;;;;;;;15.20;99.90;;;;;;4982722;28;20425;-71
2021/10/15 13:47:15;;;;;;;;;;;15.30;98.60;;;;;;5002458;28;19933;-71
2021/10/15 13:49:45;;;;;;;;;;;15.20;96.90;;;;;;4994757;28;19925;-71
2021/10/15 13:52:12;;;;;;;;;;;15.30;96.00;;;;;;4994404;28;19926;-71
2021/10/15 13:54:39;;;;;;;;;;;15.30;93.20;;;;;;4996196;28;19926;-72
2021/10/15 13:57:08;;;;;;;;;;;15.40;92.50;;;;;;4993653;28;20300;-72
2021/10/15 13:59:41;;;;;;;;;;;15.50;92.40;;;;;;4996548;28;19942;-72
2021/10/15 14:02:16;;;;;;;;;;;15.40;92.60;;;;;;4994645;28;20058;-72
2021/10/15 14:04:45;;;;;;;;;;;15.40;92.70;;;;;;4995085;28;19925;-71
2021/10/15 14:07:14;;;;;;;;;;;15.50;92.40;;;;;;4994270;28;20036;-72
2021/10/15 14:09:41;;;;;;;;;;;15.40;91.40;;;;;;4996897;28;19925;-72
2021/10/15 14:12:10;;;;;;;;;;;15.40;90.80;;;;;;4993437;28;20315;-73
2021/10/15 14:14:41;;;;;;;;;;;15.40;91.50;;;;;;4996966;28;20347;-73
2021/10/15 14:17:09;;;;;;;;;;;15.50;90.10;;;;;;4997444;28;19937;-74
2021/10/15 14:19:36;;;;;;;;;;;15.20;90.40;;;;;;4997026;28;19934;-72
2021/10/15 14:22:03;;;;;;;;;;;15.00;89.90;;;;;;4993916;28;19949;-72
2021/10/15 14:24:30;;;;;;;;;;;15.00;87.60;;;;;;5002370;28;19933;-72
2021/10/15 14:26:57;;;;;;;;;;;14.90;89.40;;;;;;4995837;28;19926;-72
2021/10/15 14:29:24;;;;;;;;;;;14.90;90.10;;;;;;4994605;28;20316;-72
2021/10/15 14:31:52;;;;;;;;;;;15.20;90.80;;;;;;4991700;28;20558;-72
2021/10/15 14:34:18;;;;;;;;;;;15.40;90.60;;;;;;4993916;28;20199;-72
2021/10/15 14:36:45;;;;;;;;;;;15.40;90.50;;;;;;4994720;28;19936;-72